createdAt,value
2023-05-20T00:00:53.618Z,11.20
2023-05-20T00:01:59.842Z,10.40
2023-05-20T00:03:07.264Z,11.20
2023-05-20T00:04:14.196Z,10.20
2023-05-20T00:05:21.112Z,10.60
2023-05-20T00:06:27.346Z,10.10
2023-05-20T00:07:33.687Z,11.30
2023-05-20T00:08:39.654Z,10.80
2023-05-20T00:09:46.748Z,11.50
2023-05-20T00:10:52.872Z,11.00
2023-05-20T00:11:58.979Z,10.50
2023-05-20T00:13:06.960Z,11.60
2023-05-20T00:14:13.082Z,10.90
2023-05-20T00:15:19.599Z,11.90
2023-05-20T00:16:26.133Z,11.40
2023-05-20T00:17:32.772Z,10.50
2023-05-20T00:18:39.257Z,11.20
2023-05-20T00:19:46.026Z,10.50
2023-05-20T00:20:51.816Z,10.80
2023-05-20T00:21:58.141Z,10.90
2023-05-20T00:23:04.578Z,11.00
2023-05-20T00:24:11.080Z,11.40
2023-05-20T00:25:18.177Z,11.60
2023-05-20T00:26:25.148Z,10.90
2023-05-20T00:27:31.247Z,10.30
2023-05-20T00:28:37.415Z,10.60
2023-05-20T00:29:43.638Z,11.10
2023-05-20T00:30:49.907Z,11.40
2023-05-20T00:31:56.186Z,11.60
2023-05-20T00:33:02.993Z,11.30
2023-05-20T00:34:10.381Z,10.40
2023-05-20T00:35:16.766Z,10.80
2023-05-20T00:36:22.832Z,11.60
2023-05-20T00:37:29.379Z,10.10
2023-05-20T00:38:37.764Z,10.50
2023-05-20T00:39:45.049Z,9.70
2023-05-20T00:40:51.275Z,10.50
2023-05-20T00:42:00.729Z,9.20
2023-05-20T00:43:06.981Z,9.30
2023-05-20T00:44:13.437Z,8.90
2023-05-20T00:45:20.509Z,8.70
2023-05-20T00:46:30.485Z,10.60
2023-05-20T00:47:39.442Z,10.00
2023-05-20T00:49:53.347Z,9.30
2023-05-20T00:50:59.666Z,10.40
2023-05-20T00:52:08.114Z,10.20
2023-05-20T00:53:17.730Z,11.50
2023-05-20T00:54:24.368Z,11.80
2023-05-20T00:55:32.037Z,11.30
2023-05-20T00:56:39.272Z,11.20
2023-05-20T00:57:46.099Z,11.10
2023-05-20T00:58:52.976Z,11.00
2023-05-20T01:00:00.296Z,11.80
2023-05-20T01:01:06.917Z,11.30
2023-05-20T01:02:13.831Z,11.50
2023-05-20T01:03:20.186Z,10.90
2023-05-20T01:04:26.826Z,11.50
2023-05-20T01:05:34.095Z,11.40
2023-05-20T01:06:40.861Z,11.00
2023-05-20T01:07:47.033Z,9.40
2023-05-20T01:08:52.777Z,10.20
2023-05-20T01:09:59.933Z,11.00
2023-05-20T01:11:09.411Z,10.90
2023-05-20T01:12:21.584Z,11.70
2023-05-20T01:13:34.562Z,10.30
2023-05-20T01:14:48.495Z,10.80
2023-05-20T01:15:57.292Z,11.00
2023-05-20T01:17:11.051Z,11.20
2023-05-20T01:18:18.834Z,10.20
2023-05-20T01:19:38.765Z,10.20
2023-05-20T01:20:47.597Z,10.10
2023-05-20T01:21:55.491Z,9.40
2023-05-20T01:23:01.890Z,10.10
2023-05-20T01:24:09.125Z,8.50
2023-05-20T01:25:15.421Z,7.60
2023-05-20T01:26:27.380Z,8.30
2023-05-20T01:27:34.012Z,8.30
2023-05-20T01:28:40.206Z,8.20
2023-05-20T01:29:48.541Z,8.50
2023-05-20T01:30:57.072Z,8.70
2023-05-20T01:32:09.318Z,7.80
2023-05-20T01:33:19.413Z,8.40
2023-05-20T01:34:26.028Z,8.10
2023-05-20T01:35:34.116Z,8.50
2023-05-20T01:36:43.198Z,8.30
2023-05-20T01:37:50.711Z,8.70
2023-05-20T01:38:57.898Z,8.10
2023-05-20T01:40:08.365Z,7.60
2023-05-20T01:41:15.200Z,7.80
2023-05-20T01:42:21.466Z,7.40
2023-05-20T01:43:29.283Z,6.90
2023-05-20T01:44:35.358Z,7.70
2023-05-20T01:45:43.613Z,7.60
2023-05-20T01:46:52.565Z,8.10
2023-05-20T01:49:03.027Z,8.10
2023-05-20T01:50:11.443Z,8.10
2023-05-20T01:51:18.104Z,8.10
2023-05-20T01:52:25.247Z,7.70
2023-05-20T01:53:32.237Z,7.70
2023-05-20T01:54:39.092Z,7.90
2023-05-20T01:55:45.239Z,7.40
2023-05-20T01:56:52.004Z,8.60
2023-05-20T01:57:57.756Z,7.30
2023-05-20T01:59:03.619Z,7.40
2023-05-20T02:00:11.884Z,8.10
2023-05-20T02:01:18.092Z,7.00
2023-05-20T02:02:24.429Z,7.40
2023-05-20T02:03:30.621Z,7.30
2023-05-20T02:04:36.539Z,7.60
2023-05-20T02:05:42.994Z,6.90
2023-05-20T02:06:49.751Z,7.30
2023-05-20T02:07:56.118Z,7.90
2023-05-20T02:09:02.158Z,6.70
2023-05-20T02:10:11.685Z,6.80
2023-05-20T02:11:17.846Z,7.50
2023-05-20T02:12:23.936Z,7.40
2023-05-20T02:13:30.323Z,7.50
2023-05-20T02:14:36.961Z,7.40
2023-05-20T02:15:45.026Z,6.80
2023-05-20T02:16:51.093Z,7.30
2023-05-20T02:17:58.356Z,7.50
2023-05-20T02:19:05.979Z,7.80
2023-05-20T02:20:14.324Z,7.10
2023-05-20T02:21:22.339Z,7.70
2023-05-20T02:22:29.192Z,8.70
2023-05-20T02:23:35.459Z,8.00
2023-05-20T02:24:43.744Z,9.20
2023-05-20T02:25:49.917Z,8.80
2023-05-20T02:26:57.517Z,8.60
2023-05-20T02:28:06.508Z,8.40
2023-05-20T02:29:12.794Z,8.40
2023-05-20T02:30:19.513Z,8.60
2023-05-20T02:31:26.080Z,9.10
2023-05-20T02:32:33.835Z,9.40
2023-05-20T02:34:45.583Z,8.50
2023-05-20T02:35:51.650Z,8.30
2023-05-20T02:36:57.891Z,8.60
2023-05-20T02:38:03.643Z,9.40
2023-05-20T02:39:10.373Z,9.90
2023-05-20T02:40:17.663Z,9.70
2023-05-20T02:41:23.643Z,10.30
2023-05-20T02:42:29.395Z,9.40
2023-05-20T02:43:36.542Z,10.50
2023-05-20T02:44:42.331Z,11.30
2023-05-20T02:45:49.699Z,10.00
2023-05-20T02:46:55.840Z,11.10
2023-05-20T02:48:02.142Z,10.70
2023-05-20T02:49:09.229Z,9.60
2023-05-20T02:50:15.600Z,10.00
2023-05-20T02:51:21.887Z,9.60
2023-05-20T02:52:28.520Z,9.60
2023-05-20T02:53:34.374Z,10.00
2023-05-20T02:54:40.763Z,10.50
2023-05-20T02:55:49.126Z,9.80
2023-05-20T02:56:55.368Z,9.20
2023-05-20T02:58:01.250Z,9.80
2023-05-20T02:59:08.559Z,10.50
2023-05-20T03:00:16.522Z,9.70
2023-05-20T03:01:23.618Z,9.60
2023-05-20T03:02:29.919Z,9.60
2023-05-20T03:03:44.003Z,10.00
2023-05-20T03:04:50.748Z,9.30
2023-05-20T03:05:57.902Z,8.50
2023-05-20T03:07:04.684Z,8.10
2023-05-20T03:08:12.877Z,8.90
2023-05-20T03:09:20.223Z,9.00
2023-05-20T03:10:27.535Z,8.70
2023-05-20T03:11:33.637Z,8.20
2023-05-20T03:12:40.153Z,8.20
2023-05-20T03:13:46.918Z,9.10
2023-05-20T03:14:55.456Z,8.30
2023-05-20T03:16:01.939Z,8.90
2023-05-20T03:17:08.475Z,8.20
2023-05-20T03:18:15.425Z,7.90
2023-05-20T03:19:22.807Z,7.70
2023-05-20T03:20:32.889Z,8.60
2023-05-20T03:21:39.650Z,7.60
2023-05-20T03:22:45.706Z,7.70
2023-05-20T03:23:52.132Z,7.10
2023-05-20T03:24:58.531Z,6.00
2023-05-20T03:26:07.004Z,6.30
2023-05-20T03:27:13.502Z,6.90
2023-05-20T03:28:19.777Z,7.80
2023-05-20T03:29:26.968Z,7.90
2023-05-20T03:30:33.116Z,8.50
2023-05-20T03:31:39.372Z,8.70
2023-05-20T03:32:52.093Z,8.40
2023-05-20T03:33:58.424Z,10.00
2023-05-20T03:35:05.883Z,9.00
2023-05-20T03:36:12.157Z,8.90
2023-05-20T03:37:18.148Z,9.60
2023-05-20T03:38:24.353Z,9.70
2023-05-20T03:39:30.374Z,9.20
2023-05-20T03:40:37.103Z,9.50
2023-05-20T03:41:44.068Z,8.90
2023-05-20T03:42:52.621Z,9.80
2023-05-20T03:43:58.706Z,9.90
2023-05-20T03:45:07.136Z,9.60
2023-05-20T03:46:13.270Z,9.20
2023-05-20T03:47:20.015Z,10.00
2023-05-20T03:48:26.153Z,9.70
2023-05-20T03:49:32.980Z,11.10
2023-05-20T03:50:39.988Z,10.30
2023-05-20T03:51:46.520Z,10.70
2023-05-20T03:52:52.561Z,10.00
2023-05-20T03:53:58.729Z,10.10
2023-05-20T03:55:06.527Z,10.00
2023-05-20T03:56:12.897Z,9.60
2023-05-20T03:57:19.954Z,10.40
2023-05-20T03:58:26.977Z,9.60
2023-05-20T03:59:33.191Z,9.80
2023-05-20T04:00:39.841Z,9.40
2023-05-20T04:01:46.694Z,9.40
2023-05-20T04:02:52.842Z,9.20
2023-05-20T04:04:00.428Z,9.40
2023-05-20T04:05:10.538Z,9.40
2023-05-20T04:06:16.656Z,10.10
2023-05-20T04:07:22.716Z,9.70
2023-05-20T04:08:29.281Z,9.50
2023-05-20T04:09:35.167Z,10.30
2023-05-20T04:10:43.263Z,10.40
2023-05-20T04:11:49.311Z,10.60
2023-05-20T04:12:55.579Z,10.60
2023-05-20T04:14:01.705Z,12.60
2023-05-20T04:15:11.894Z,11.60
2023-05-20T04:16:18.434Z,10.30
2023-05-20T04:17:24.642Z,11.40
2023-05-20T04:18:31.905Z,10.60
2023-05-20T04:19:38.369Z,12.20
2023-05-20T04:20:45.893Z,11.80
2023-05-20T04:21:51.751Z,11.40
2023-05-20T04:22:58.436Z,11.20
2023-05-20T04:24:04.855Z,11.20
2023-05-20T04:25:12.497Z,11.10
2023-05-20T04:26:19.028Z,10.70
2023-05-20T04:27:25.902Z,10.30
2023-05-20T04:28:31.976Z,11.80
2023-05-20T04:29:38.812Z,11.70
2023-05-20T04:30:45.910Z,10.70
2023-05-20T04:31:53.768Z,11.30
2023-05-20T04:33:04.180Z,12.10
2023-05-20T04:34:10.966Z,11.60
2023-05-20T04:35:17.250Z,11.10
2023-05-20T04:36:28.679Z,11.70
2023-05-20T04:37:35.502Z,9.80
2023-05-20T04:38:42.364Z,11.40
2023-05-20T04:39:50.016Z,10.40
2023-05-20T04:40:58.487Z,10.80
2023-05-20T04:42:05.394Z,11.60
2023-05-20T04:43:12.285Z,12.00
2023-05-20T04:44:17.985Z,11.40
2023-05-20T04:45:24.059Z,11.80
2023-05-20T04:46:30.191Z,11.70
2023-05-20T04:47:39.358Z,11.30
2023-05-20T04:48:45.999Z,12.80
2023-05-20T04:49:53.100Z,11.50
2023-05-20T04:50:58.916Z,11.80
2023-05-20T04:52:05.749Z,11.60
2023-05-20T04:53:11.689Z,12.50
2023-05-20T04:54:20.452Z,11.80
2023-05-20T04:55:28.007Z,12.10
2023-05-20T04:56:33.987Z,11.70
2023-05-20T04:57:42.501Z,11.80
2023-05-20T04:58:50.191Z,12.00
2023-05-20T04:59:59.464Z,12.60
2023-05-20T05:01:06.616Z,12.60
2023-05-20T05:02:12.750Z,11.80
2023-05-20T05:03:19.561Z,10.70
2023-05-20T05:04:26.466Z,12.20
2023-05-20T05:05:33.136Z,11.30
2023-05-20T05:06:39.400Z,11.30
2023-05-20T05:07:45.811Z,11.30
2023-05-20T05:08:51.550Z,11.70
2023-05-20T05:09:57.723Z,10.90
2023-05-20T05:11:05.626Z,12.50
2023-05-20T05:12:11.867Z,12.30
2023-05-20T05:13:17.943Z,10.70
2023-05-20T05:14:24.524Z,11.80
2023-05-20T05:15:31.254Z,11.70
2023-05-20T05:16:37.499Z,10.40
2023-05-20T05:17:43.429Z,11.30
2023-05-20T05:18:49.906Z,11.50
2023-05-20T05:19:56.281Z,11.20
2023-05-20T05:21:04.478Z,11.60
2023-05-20T05:22:11.196Z,11.60
2023-05-20T05:23:17.540Z,11.60
2023-05-20T05:24:23.213Z,11.70
2023-05-20T05:25:29.620Z,11.20
2023-05-20T05:26:35.920Z,11.90
2023-05-20T05:27:42.962Z,10.70
2023-05-20T05:28:49.128Z,11.10
2023-05-20T05:29:55.101Z,10.80
2023-05-20T05:31:02.862Z,11.30
2023-05-20T05:32:10.247Z,11.90
2023-05-20T05:33:17.700Z,11.80
2023-05-20T05:34:23.839Z,11.80
2023-05-20T05:35:30.189Z,11.70
2023-05-20T05:36:38.452Z,11.40
2023-05-20T05:37:44.532Z,10.30
2023-05-20T05:38:51.161Z,11.60
2023-05-20T05:39:57.386Z,11.00
2023-05-20T05:41:04.292Z,11.60
2023-05-20T05:42:10.873Z,10.50
2023-05-20T05:43:16.875Z,10.80
2023-05-20T05:44:23.400Z,10.30
2023-05-20T05:45:29.924Z,10.30
2023-05-20T05:46:36.288Z,11.70
2023-05-20T05:47:43.125Z,12.80
2023-05-20T05:48:51.711Z,10.60
2023-05-20T05:49:58.265Z,9.80
2023-05-20T05:51:04.930Z,10.30
2023-05-20T05:52:11.289Z,10.20
2023-05-20T05:53:17.215Z,9.40
2023-05-20T05:54:23.376Z,9.50
2023-05-20T05:55:29.948Z,9.60
2023-05-20T05:56:36.080Z,9.70
2023-05-20T05:57:42.077Z,11.20
2023-05-20T05:58:48.647Z,12.20
2023-05-20T05:59:56.055Z,9.90
2023-05-20T06:01:02.366Z,10.00
2023-05-20T06:02:11.129Z,10.60
2023-05-20T06:03:18.082Z,10.50
2023-05-20T06:04:24.875Z,10.80
2023-05-20T06:05:31.451Z,10.00
2023-05-20T06:06:38.129Z,9.80
2023-05-20T06:07:46.088Z,12.10
2023-05-20T06:08:52.616Z,9.90
2023-05-20T06:09:59.603Z,9.80
2023-05-20T06:11:06.874Z,9.80
2023-05-20T06:12:13.972Z,11.90
2023-05-20T06:13:22.906Z,10.00
2023-05-20T06:14:29.254Z,10.10
2023-05-20T06:15:36.912Z,10.40
2023-05-20T06:16:44.454Z,10.10
2023-05-20T06:17:53.554Z,10.40
2023-05-20T06:19:02.663Z,11.60
2023-05-20T06:20:12.467Z,10.80
2023-05-20T06:21:19.209Z,10.90
2023-05-20T06:22:24.950Z,11.10
2023-05-20T06:23:31.627Z,11.70
2023-05-20T06:24:38.004Z,10.80
2023-05-20T06:25:44.303Z,11.30
2023-05-20T06:26:51.192Z,11.00
2023-05-20T06:27:57.199Z,10.00
2023-05-20T06:29:03.613Z,10.70
2023-05-20T06:30:13.628Z,10.20
2023-05-20T06:31:19.808Z,10.90
2023-05-20T06:32:25.842Z,10.80
2023-05-20T06:33:32.305Z,12.50
2023-05-20T06:34:38.809Z,12.20
2023-05-20T06:35:45.006Z,13.00
2023-05-20T06:36:50.783Z,12.80
2023-05-20T06:37:56.936Z,12.50
2023-05-20T06:39:06.519Z,13.10
2023-05-20T06:40:14.714Z,12.90
2023-05-20T06:41:22.549Z,12.10
2023-05-20T06:42:28.753Z,13.20
2023-05-20T06:43:34.919Z,12.80
2023-05-20T06:44:40.850Z,15.00
2023-05-20T06:45:51.573Z,12.30
2023-05-20T06:46:59.941Z,11.90
2023-05-20T06:48:10.319Z,11.00
2023-05-20T06:49:16.770Z,11.80
2023-05-20T06:50:23.556Z,13.00
2023-05-20T06:51:31.240Z,11.30
2023-05-20T06:52:37.591Z,11.20
2023-05-20T06:53:46.187Z,11.30
2023-05-20T06:54:52.205Z,10.80
2023-05-20T06:55:58.476Z,11.60
2023-05-20T06:57:06.092Z,12.00
2023-05-20T06:58:11.988Z,11.70
2023-05-20T06:59:18.301Z,11.70
2023-05-20T07:00:24.636Z,11.30
2023-05-20T07:01:30.414Z,10.70
2023-05-20T07:02:36.404Z,10.20
2023-05-20T07:03:44.307Z,10.40
2023-05-20T07:04:51.254Z,11.50
2023-05-20T07:05:57.130Z,10.70
2023-05-20T07:07:04.478Z,10.50
2023-05-20T07:08:11.418Z,10.80
2023-05-20T07:09:18.044Z,11.10
2023-05-20T07:10:24.396Z,9.70
2023-05-20T07:11:30.255Z,9.50
2023-05-20T07:12:37.132Z,10.00
2023-05-20T07:13:43.567Z,10.60
2023-05-20T07:14:49.509Z,10.10
2023-05-20T07:15:55.454Z,10.10
2023-05-20T07:17:02.383Z,9.00
2023-05-20T07:18:16.416Z,10.60
2023-05-20T07:19:22.916Z,9.30
2023-05-20T07:20:29.767Z,9.30
2023-05-20T07:21:36.886Z,8.40
2023-05-20T07:22:46.010Z,8.10
2023-05-20T07:24:56.366Z,7.50
2023-05-20T07:26:03.703Z,7.20
2023-05-20T07:27:09.664Z,7.70
2023-05-20T07:28:18.908Z,7.80
2023-05-20T07:29:25.096Z,7.70
2023-05-20T07:30:31.214Z,8.00
2023-05-20T07:31:38.415Z,7.40
2023-05-20T07:32:44.652Z,7.60
2023-05-20T07:33:51.942Z,6.70
2023-05-20T07:34:58.005Z,7.30
2023-05-20T07:36:04.103Z,6.50
2023-05-20T07:37:13.480Z,7.80
2023-05-20T07:38:19.803Z,6.80
2023-05-20T07:39:26.614Z,7.70
2023-05-20T07:40:34.217Z,7.20
2023-05-20T07:41:40.981Z,6.30
2023-05-20T07:42:46.964Z,6.80
2023-05-20T07:43:53.110Z,7.70
2023-05-20T07:44:58.911Z,6.80
2023-05-20T07:46:04.961Z,7.50
2023-05-20T07:47:13.465Z,8.00
2023-05-20T07:48:23.291Z,6.80
2023-05-20T07:49:30.089Z,6.90
2023-05-20T07:50:37.973Z,7.00
2023-05-20T07:51:46.560Z,6.30
2023-05-20T07:52:56.825Z,6.30
2023-05-20T07:54:04.286Z,6.80
2023-05-20T07:55:10.677Z,6.90
2023-05-20T07:56:16.850Z,6.30
2023-05-20T07:57:23.582Z,6.80
2023-05-20T07:58:30.854Z,7.10
2023-05-20T07:59:37.297Z,6.40
2023-05-20T08:00:44.040Z,6.60
2023-05-20T08:01:49.975Z,6.60
2023-05-20T08:02:56.525Z,6.50
2023-05-20T08:04:03.200Z,7.40
2023-05-20T08:05:11.155Z,7.70
2023-05-20T08:06:17.658Z,6.70
2023-05-20T08:07:23.837Z,7.00
2023-05-20T08:08:31.449Z,7.10
2023-05-20T08:09:37.914Z,7.30
2023-05-20T08:10:44.262Z,7.50
2023-05-20T08:11:50.134Z,6.90
2023-05-20T08:12:56.046Z,6.40
2023-05-20T08:14:02.586Z,6.60
2023-05-20T08:15:12.568Z,6.00
2023-05-20T08:16:19.157Z,6.90
2023-05-20T08:17:25.427Z,6.40
2023-05-20T08:18:39.128Z,7.00
2023-05-20T08:19:46.282Z,6.60
2023-05-20T08:20:52.493Z,7.00
2023-05-20T08:21:58.583Z,7.30
2023-05-20T08:23:05.144Z,9.90
2023-05-20T08:24:12.528Z,9.30
2023-05-20T08:25:20.158Z,8.60
2023-05-20T08:26:26.893Z,7.70
2023-05-20T08:27:32.866Z,7.40
2023-05-20T08:28:39.609Z,6.90
2023-05-20T08:29:46.270Z,6.50
2023-05-20T08:30:52.198Z,6.10
2023-05-20T08:31:59.906Z,6.20
2023-05-20T08:33:06.183Z,6.40
2023-05-20T08:34:12.714Z,6.40
2023-05-20T08:35:18.895Z,5.50
2023-05-20T08:36:25.420Z,5.80
2023-05-20T08:37:31.826Z,6.00
2023-05-20T08:38:38.032Z,6.00
2023-05-20T08:39:47.681Z,7.00
2023-05-20T08:40:56.871Z,6.60
2023-05-20T08:43:08.586Z,5.90
2023-05-20T08:44:15.145Z,5.70
2023-05-20T08:45:27.543Z,6.40
2023-05-20T08:46:36.099Z,6.70
2023-05-20T08:47:44.808Z,6.50
2023-05-20T08:48:51.674Z,6.50
2023-05-20T08:49:57.547Z,6.00
2023-05-20T08:51:06.749Z,6.40
2023-05-20T08:52:14.792Z,6.00
2023-05-20T08:53:22.640Z,5.50
2023-05-20T08:54:46.530Z,5.90
2023-05-20T08:56:02.550Z,6.10
2023-05-20T08:57:08.646Z,5.70
2023-05-20T08:58:15.803Z,6.40
2023-05-20T08:59:22.458Z,6.30
2023-05-20T09:00:29.032Z,6.10
2023-05-20T09:01:41.716Z,6.60
2023-05-20T09:02:48.484Z,5.70
2023-05-20T09:03:55.566Z,5.90
2023-05-20T09:05:01.488Z,5.80
2023-05-20T09:06:09.734Z,6.20
2023-05-20T09:07:26.528Z,5.70
2023-05-20T09:08:33.196Z,6.00
2023-05-20T09:09:39.431Z,5.80
2023-05-20T09:10:46.194Z,6.00
2023-05-20T09:11:52.144Z,6.20
2023-05-20T09:12:57.952Z,6.70
2023-05-20T09:14:04.538Z,6.00
2023-05-20T09:15:11.461Z,6.70
2023-05-20T09:16:17.890Z,6.40
2023-05-20T09:17:25.212Z,5.80
2023-05-20T09:18:32.298Z,6.10
2023-05-20T09:19:38.768Z,5.10
2023-05-20T09:20:46.974Z,6.00
2023-05-20T09:21:56.228Z,5.90
2023-05-20T09:23:03.624Z,6.20
2023-05-20T09:24:09.958Z,6.10
2023-05-20T09:25:23.742Z,5.80
2023-05-20T09:26:30.911Z,5.90
2023-05-20T09:27:37.329Z,6.40
2023-05-20T09:28:43.360Z,6.00
2023-05-20T09:29:50.894Z,5.70
2023-05-20T09:31:02.237Z,6.10
2023-05-20T09:32:09.567Z,6.30
2023-05-20T09:33:16.670Z,5.90
2023-05-20T09:34:23.940Z,6.00
2023-05-20T09:35:30.238Z,5.90
2023-05-20T09:36:39.822Z,5.30
2023-05-20T09:37:48.804Z,6.10
2023-05-20T09:39:00.495Z,6.30
2023-05-20T09:40:15.858Z,5.50
2023-05-20T09:41:29.457Z,6.30
2023-05-20T09:42:40.012Z,6.50
2023-05-20T09:43:48.298Z,6.20
2023-05-20T09:44:58.481Z,6.10
2023-05-20T09:46:06.226Z,6.00
2023-05-20T09:47:12.982Z,6.90
2023-05-20T09:48:19.599Z,6.70
2023-05-20T09:49:31.392Z,6.20
2023-05-20T09:50:37.764Z,6.50
2023-05-20T09:51:46.224Z,6.30
2023-05-20T09:52:53.572Z,6.50
2023-05-20T09:54:01.027Z,5.90
2023-05-20T09:55:12.987Z,8.00
2023-05-20T09:56:22.099Z,7.50
2023-05-20T09:58:34.105Z,6.30
2023-05-20T09:59:40.690Z,7.10
2023-05-20T10:00:47.254Z,6.10
2023-05-20T10:01:53.237Z,6.40
2023-05-20T10:03:00.224Z,6.70
2023-05-20T10:04:09.193Z,7.70
2023-05-20T10:06:39.361Z,8.40
2023-05-20T10:08:16.158Z,7.30
2023-05-20T10:09:46.576Z,7.40
2023-05-20T10:11:06.076Z,7.10
2023-05-20T10:12:25.012Z,6.90
2023-05-20T10:13:46.675Z,6.90
2023-05-20T10:15:06.231Z,7.90
2023-05-20T10:16:25.878Z,7.40
2023-05-20T10:17:41.294Z,7.00
2023-05-20T10:18:58.893Z,7.00
2023-05-20T10:20:09.365Z,6.90
2023-05-20T10:21:24.814Z,8.30
2023-05-20T10:22:34.199Z,6.80
2023-05-20T10:23:40.872Z,6.80
2023-05-20T10:24:47.319Z,7.00
2023-05-20T10:25:56.787Z,6.70
2023-05-20T10:27:04.618Z,7.70
2023-05-20T10:28:11.661Z,6.80
2023-05-20T10:29:21.364Z,7.50
2023-05-20T10:30:27.832Z,7.90
2023-05-20T10:31:44.717Z,7.90
2023-05-20T10:33:01.096Z,7.90
2023-05-20T10:34:20.072Z,9.40
2023-05-20T10:35:28.992Z,8.10
2023-05-20T10:36:35.575Z,7.80
2023-05-20T10:37:48.969Z,7.60
2023-05-20T10:39:01.638Z,7.40
2023-05-20T10:40:13.992Z,7.40
2023-05-20T10:41:25.064Z,7.50
2023-05-20T10:42:31.397Z,8.80
2023-05-20T10:43:37.991Z,7.40
2023-05-20T10:44:46.966Z,7.60
2023-05-20T10:45:55.368Z,8.80
2023-05-20T10:47:24.506Z,7.40
2023-05-20T10:48:34.685Z,7.50
2023-05-20T10:49:47.875Z,7.40
2023-05-20T10:50:57.113Z,6.80
2023-05-20T10:52:03.563Z,6.90
2023-05-20T10:53:29.385Z,6.90
2023-05-20T10:54:46.942Z,6.70
2023-05-20T10:55:56.332Z,6.80
2023-05-20T10:57:09.518Z,7.50
2023-05-20T10:58:17.231Z,7.30
2023-05-20T10:59:26.562Z,7.30
2023-05-20T11:00:35.078Z,6.90
2023-05-20T11:02:47.562Z,6.90
2023-05-20T11:03:58.047Z,7.10
2023-05-20T11:05:13.054Z,7.60
2023-05-20T11:07:29.328Z,7.60
2023-05-20T11:08:37.170Z,7.20
2023-05-20T11:09:51.891Z,7.20
2023-05-20T11:10:59.558Z,8.10
2023-05-20T11:12:07.368Z,7.70
2023-05-20T11:13:15.717Z,7.70
2023-05-20T11:14:23.974Z,7.40
2023-05-20T11:15:31.143Z,7.50
2023-05-20T11:16:37.975Z,7.80
2023-05-20T11:17:56.519Z,7.00
2023-05-20T11:19:03.513Z,7.50
2023-05-20T11:20:15.839Z,7.80
2023-05-20T11:21:21.985Z,7.50
2023-05-20T11:22:28.108Z,7.40
2023-05-20T11:23:40.621Z,7.10
2023-05-20T11:24:48.211Z,6.60
2023-05-20T11:25:55.239Z,7.50
2023-05-20T11:27:02.721Z,7.60
2023-05-20T11:28:17.773Z,7.20
2023-05-20T11:29:23.606Z,7.70
2023-05-20T11:30:30.513Z,7.30
2023-05-20T11:31:39.447Z,7.00
2023-05-20T11:32:56.399Z,8.10
2023-05-20T11:34:05.216Z,11.70
2023-05-20T11:35:23.748Z,9.70
2023-05-20T11:36:31.064Z,8.80
2023-05-20T11:37:37.898Z,7.60
2023-05-20T11:38:46.392Z,6.80
2023-05-20T11:40:10.299Z,7.50
2023-05-20T11:41:16.529Z,7.40
2023-05-20T11:42:23.499Z,7.00
2023-05-20T11:43:30.293Z,8.20
2023-05-20T11:44:36.769Z,7.70
2023-05-20T11:45:46.080Z,6.30
2023-05-20T11:46:59.248Z,6.90
2023-05-20T11:48:06.540Z,7.00
2023-05-20T11:49:17.153Z,6.20
2023-05-20T11:50:24.288Z,6.80
2023-05-20T11:51:30.824Z,7.20
2023-05-20T11:52:39.227Z,7.10
2023-05-20T11:53:49.972Z,6.90
2023-05-20T11:54:57.482Z,6.70
2023-05-20T11:56:04.967Z,6.90
2023-05-20T11:57:17.285Z,7.90
2023-05-20T11:58:26.952Z,7.00
2023-05-20T11:59:33.229Z,6.40
2023-05-20T12:00:50.116Z,8.90
2023-05-20T12:01:59.165Z,7.30
2023-05-20T12:03:05.540Z,7.80
2023-05-20T12:04:15.152Z,6.90
2023-05-20T12:05:22.193Z,7.70
2023-05-20T12:06:28.510Z,7.60
2023-05-20T12:07:34.262Z,7.30
2023-05-20T12:08:40.530Z,7.20
2023-05-20T12:09:46.456Z,7.40
2023-05-20T12:10:52.603Z,7.60
2023-05-20T12:11:59.462Z,6.60
2023-05-20T12:13:09.507Z,7.70
2023-05-20T12:14:16.165Z,7.50
2023-05-20T12:15:21.965Z,8.70
2023-05-20T12:16:28.549Z,8.20
2023-05-20T12:17:48.101Z,11.10
2023-05-20T12:18:53.891Z,7.20
2023-05-20T12:20:00.136Z,7.80
2023-05-20T12:21:06.753Z,7.50
2023-05-20T12:22:12.869Z,6.60
2023-05-20T12:23:19.516Z,7.40
2023-05-20T12:24:25.924Z,7.10
2023-05-20T12:25:32.264Z,7.10
2023-05-20T12:26:38.996Z,7.30
2023-05-20T12:27:48.533Z,7.20
2023-05-20T12:28:55.212Z,7.90
2023-05-20T12:30:01.855Z,6.80
2023-05-20T12:31:09.028Z,7.90
2023-05-20T12:32:15.251Z,7.40
2023-05-20T12:33:21.482Z,7.40
2023-05-20T12:34:27.719Z,7.40
2023-05-20T12:35:42.029Z,7.20
2023-05-20T12:36:51.490Z,7.60
2023-05-20T12:37:57.416Z,6.50
2023-05-20T12:39:05.464Z,7.30
2023-05-20T12:40:14.025Z,7.50
2023-05-20T12:41:20.486Z,7.10
2023-05-20T12:42:27.984Z,6.80
2023-05-20T12:43:36.928Z,6.70
2023-05-20T12:44:43.557Z,7.20
2023-05-20T12:45:51.323Z,6.80
2023-05-20T12:46:58.013Z,7.40
2023-05-20T12:48:06.121Z,7.80
2023-05-20T12:49:12.584Z,6.70
2023-05-20T12:50:18.569Z,6.10
2023-05-20T12:51:26.417Z,7.30
2023-05-20T12:52:32.569Z,6.70
2023-05-20T12:53:40.342Z,7.40
2023-05-20T12:54:46.462Z,7.10
2023-05-20T12:55:52.596Z,7.20
2023-05-20T12:56:59.120Z,7.30
2023-05-20T12:58:04.829Z,7.10
2023-05-20T12:59:10.952Z,6.60
2023-05-20T13:00:18.805Z,6.90
2023-05-20T13:01:24.921Z,7.10
2023-05-20T13:02:32.187Z,7.20
2023-05-20T13:03:38.722Z,7.20
2023-05-20T13:04:49.017Z,7.70
2023-05-20T13:05:59.010Z,7.40
2023-05-20T13:07:05.885Z,7.70
2023-05-20T13:08:12.941Z,6.60
2023-05-20T13:09:19.246Z,5.80
2023-05-20T13:10:25.759Z,5.80
2023-05-20T13:11:31.531Z,5.20
2023-05-20T13:12:38.520Z,5.60
2023-05-20T13:13:44.289Z,5.60
2023-05-20T13:14:50.047Z,5.20
2023-05-20T13:15:56.127Z,5.00
2023-05-20T13:17:02.447Z,5.00
2023-05-20T13:18:08.515Z,4.80
2023-05-20T13:19:14.827Z,4.90
2023-05-20T13:20:21.672Z,4.70
2023-05-20T13:21:28.188Z,5.10
2023-05-20T13:22:35.206Z,5.30
2023-05-20T13:23:45.657Z,5.00
2023-05-20T13:24:52.470Z,5.30
2023-05-20T13:26:00.244Z,4.70
2023-05-20T13:27:06.809Z,5.40
2023-05-20T13:28:19.503Z,4.70
2023-05-20T13:29:25.439Z,4.60
2023-05-20T13:30:32.996Z,4.40
2023-05-20T13:31:39.566Z,5.00
2023-05-20T13:32:46.357Z,5.10
2023-05-20T13:33:53.684Z,5.90
2023-05-20T13:35:00.147Z,4.50
2023-05-20T13:36:07.435Z,5.10
2023-05-20T13:37:13.378Z,5.10
2023-05-20T13:38:19.490Z,4.70
2023-05-20T13:39:25.209Z,5.30
2023-05-20T13:40:31.184Z,4.40
2023-05-20T13:41:37.742Z,5.50
2023-05-20T13:42:44.314Z,5.30
2023-05-20T13:43:50.772Z,5.30
2023-05-20T13:44:56.609Z,5.60
2023-05-20T13:46:04.041Z,5.50
2023-05-20T13:47:10.791Z,6.20
2023-05-20T13:48:17.072Z,5.40
2023-05-20T13:49:25.960Z,5.50
2023-05-20T13:50:32.295Z,5.40
2023-05-20T13:51:38.496Z,5.30
2023-05-20T13:52:44.422Z,5.10
2023-05-20T13:53:52.076Z,5.80
2023-05-20T13:54:58.090Z,5.60
2023-05-20T13:56:09.244Z,5.50
2023-05-20T13:57:15.522Z,5.90
2023-05-20T13:58:21.623Z,5.80
2023-05-20T13:59:27.565Z,5.70
2023-05-20T14:00:34.208Z,5.90
2023-05-20T14:01:45.561Z,5.80
2023-05-20T14:02:51.935Z,6.20
2023-05-20T14:03:58.567Z,6.20
2023-05-20T14:05:09.854Z,6.30
2023-05-20T14:06:19.242Z,5.90
2023-05-20T14:07:25.986Z,6.40
2023-05-20T14:08:32.067Z,6.00
2023-05-20T14:09:38.253Z,6.60
2023-05-20T14:10:44.312Z,6.60
2023-05-20T14:11:51.951Z,6.20
2023-05-20T14:13:03.014Z,6.50
2023-05-20T14:14:09.756Z,6.60
2023-05-20T14:15:16.442Z,6.40
2023-05-20T14:16:22.932Z,6.00
2023-05-20T14:17:28.952Z,6.50
2023-05-20T14:18:35.032Z,6.50
2023-05-20T14:19:41.550Z,7.30
2023-05-20T14:20:49.112Z,6.80
2023-05-20T14:21:55.864Z,6.90
2023-05-20T14:23:02.393Z,6.00
2023-05-20T14:24:09.273Z,6.40
2023-05-20T14:25:15.379Z,6.90
2023-05-20T14:26:21.825Z,7.10
2023-05-20T14:27:28.734Z,6.50
2023-05-20T14:28:34.879Z,6.70
2023-05-20T14:29:41.013Z,6.50
2023-05-20T14:30:47.254Z,7.00
2023-05-20T14:31:53.389Z,6.80
2023-05-20T14:32:59.749Z,6.80
2023-05-20T14:34:07.404Z,6.30
2023-05-20T14:35:16.986Z,6.80
2023-05-20T14:36:23.395Z,7.60
2023-05-20T14:37:29.692Z,6.70
2023-05-20T14:38:37.719Z,8.00
2023-05-20T14:39:44.579Z,7.70
2023-05-20T14:40:52.157Z,7.50
2023-05-20T14:41:58.261Z,7.90
2023-05-20T14:43:04.294Z,7.10
2023-05-20T14:44:10.681Z,7.60
2023-05-20T14:45:17.234Z,8.50
2023-05-20T14:46:23.599Z,7.60
2023-05-20T14:47:30.110Z,7.90
2023-05-20T14:48:36.555Z,7.50
2023-05-20T14:49:44.744Z,7.70
2023-05-20T14:50:51.550Z,7.90
2023-05-20T14:51:58.629Z,7.30
2023-05-20T14:53:06.749Z,7.40
2023-05-20T14:54:14.733Z,7.50
2023-05-20T14:55:21.730Z,7.60
2023-05-20T14:56:28.757Z,7.50
2023-05-20T14:57:35.292Z,7.60
2023-05-20T14:58:42.128Z,7.30
2023-05-20T14:59:51.294Z,7.20
2023-05-20T15:01:00.079Z,8.10
2023-05-20T15:02:06.929Z,8.30
2023-05-20T15:03:15.647Z,8.00